createdAt,value
2019-06-01T00:00:12.562Z,54.70
2019-06-01T00:02:44.282Z,54.70
2019-06-01T00:05:12.581Z,54.80
2019-06-01T00:07:42.856Z,54.80
2019-06-01T00:10:14.103Z,55.10
2019-06-01T00:12:43.491Z,55.00
2019-06-01T00:15:12.826Z,55.20
2019-06-01T00:17:41.935Z,55.30
2019-06-01T00:20:11.303Z,54.80
2019-06-01T00:22:41.197Z,54.80
2019-06-01T00:25:10.495Z,54.70
2019-06-01T00:27:40.447Z,54.70
2019-06-01T00:30:24.182Z,54.60
2019-06-01T00:32:41.359Z,55.00
2019-06-01T00:35:10.743Z,55.00
2019-06-01T00:37:39.941Z,55.40
2019-06-01T00:40:09.352Z,55.50
2019-06-01T00:42:38.559Z,55.50
2019-06-01T00:45:08.351Z,55.20
2019-06-01T00:47:37.499Z,55.00
2019-06-01T00:50:07.695Z,55.30
2019-06-01T00:52:36.974Z,55.40
2019-06-01T00:55:06.807Z,55.40
2019-06-01T00:57:35.896Z,55.30
2019-06-01T01:00:06.813Z,55.20
2019-06-01T01:02:35.927Z,55.40
2019-06-01T01:05:13.336Z,55.20
2019-06-01T01:07:42.500Z,55.10
2019-06-01T01:10:11.807Z,55.30
2019-06-01T01:12:49.074Z,55.40
2019-06-01T01:15:18.501Z,55.70
2019-06-01T01:17:47.864Z,55.60
2019-06-01T01:20:17.197Z,55.30
2019-06-01T01:22:46.289Z,55.30
2019-06-01T01:25:15.530Z,55.20
2019-06-01T01:27:44.697Z,55.20
2019-06-01T01:30:17.900Z,55.30
2019-06-01T01:32:47.385Z,55.30
2019-06-01T01:35:16.781Z,55.30
2019-06-01T01:37:45.988Z,55.40
2019-06-01T01:40:15.092Z,55.30
2019-06-01T01:42:44.172Z,55.00
2019-06-01T01:45:13.889Z,55.20
2019-06-01T01:47:42.933Z,55.50
2019-06-01T01:50:16.136Z,55.60
2019-06-01T01:52:45.061Z,55.90
2019-06-01T01:55:14.247Z,56.40
2019-06-01T01:57:43.457Z,56.60
2019-06-01T02:00:13.766Z,56.50
2019-06-01T02:02:42.983Z,56.70
2019-06-01T02:05:12.405Z,56.50
2019-06-01T02:07:41.586Z,56.20
2019-06-01T02:10:11.286Z,56.60
2019-06-01T02:12:40.493Z,56.70
2019-06-01T02:15:09.889Z,56.60
2019-06-01T02:17:39.187Z,56.50
2019-06-01T02:20:08.495Z,56.90
2019-06-01T02:22:37.787Z,56.70
2019-06-01T02:25:07.531Z,56.80
2019-06-01T02:27:36.697Z,56.90
2019-06-01T02:30:09.612Z,56.90
2019-06-01T02:32:38.891Z,57.10
2019-06-01T02:35:08.475Z,57.10
2019-06-01T02:37:37.787Z,57.00
2019-06-01T02:40:07.812Z,56.90
2019-06-01T02:42:36.899Z,56.90
2019-06-01T02:45:13.735Z,56.40
2019-06-01T02:47:43.216Z,56.20
2019-06-01T02:50:12.655Z,55.90
2019-06-01T02:52:41.786Z,55.70
2019-06-01T02:55:16.466Z,56.10
2019-06-01T02:57:45.734Z,56.10
2019-06-01T03:00:17.129Z,56.10
2019-06-01T03:02:47.567Z,56.10
2019-06-01T03:05:17.528Z,56.00
2019-06-01T03:07:49.568Z,56.40
2019-06-01T03:10:21.529Z,56.40
2019-06-01T03:12:53.593Z,56.70
2019-06-01T03:15:22.787Z,56.90
2019-06-01T03:17:53.968Z,56.50
2019-06-01T03:20:23.030Z,56.50
2019-06-01T03:22:52.792Z,56.50
2019-06-01T03:25:22.040Z,56.70
2019-06-01T03:27:54.019Z,57.10
2019-06-01T03:30:32.011Z,57.20
2019-06-01T03:33:01.222Z,56.70
2019-06-01T03:35:30.932Z,56.70
2019-06-01T03:38:00.848Z,56.90
2019-06-01T03:40:30.135Z,56.80
2019-06-01T03:43:00.161Z,57.00
2019-06-01T03:45:29.660Z,57.20
2019-06-01T03:47:58.851Z,57.30
2019-06-01T03:50:27.859Z,57.20
2019-06-01T03:52:57.042Z,57.40
2019-06-01T03:55:26.248Z,57.30
2019-06-01T03:57:55.230Z,57.40
2019-06-01T04:00:24.640Z,57.60
2019-06-01T04:02:53.830Z,57.50
2019-06-01T04:05:22.864Z,57.60
2019-06-01T04:07:51.933Z,57.80
2019-06-01T04:10:22.549Z,57.40
2019-06-01T04:12:51.749Z,57.10
2019-06-01T04:15:20.850Z,57.30
2019-06-01T04:17:49.943Z,57.00
2019-06-01T04:20:19.139Z,57.50
2019-06-01T04:22:48.230Z,57.70
2019-06-01T04:25:18.553Z,57.10
2019-06-01T04:27:47.759Z,57.00
2019-06-01T04:30:17.052Z,57.20
2019-06-01T04:32:49.813Z,57.60
2019-06-01T04:35:16.782Z,57.20
2019-06-01T04:37:45.885Z,57.50
2019-06-01T04:40:15.178Z,57.40
2019-06-01T04:42:44.279Z,57.50
2019-06-01T04:45:14.403Z,57.70
2019-06-01T04:47:43.693Z,57.50
2019-06-01T04:50:13.158Z,57.30
2019-06-01T04:52:42.292Z,57.00
2019-06-01T04:55:11.488Z,56.80
2019-06-01T04:57:40.586Z,56.80
2019-06-01T05:00:24.031Z,57.00
2019-06-01T05:02:41.241Z,57.10
2019-06-01T05:05:11.245Z,57.40
2019-06-01T05:07:40.656Z,57.10
2019-06-01T05:10:11.611Z,57.20
2019-06-01T05:12:40.899Z,57.00
2019-06-01T05:15:13.911Z,56.80
2019-06-01T05:17:43.190Z,56.80
2019-06-01T05:20:14.594Z,56.80
2019-06-01T05:22:43.932Z,56.90
2019-06-01T05:25:13.621Z,57.00
2019-06-01T05:27:43.660Z,56.90
2019-06-01T05:30:13.733Z,56.70
2019-06-01T05:32:43.084Z,56.20
2019-06-01T05:35:12.474Z,55.60
2019-06-01T05:37:41.571Z,55.40
2019-06-01T05:40:10.770Z,55.70
2019-06-01T05:42:39.970Z,55.50
2019-06-01T05:45:11.161Z,55.50
2019-06-01T05:47:40.407Z,55.70
2019-06-01T05:50:10.613Z,55.70
2019-06-01T05:52:39.941Z,55.80
2019-06-01T05:55:10.285Z,55.40
2019-06-01T05:57:39.707Z,55.50
2019-06-01T06:00:13.123Z,55.30
2019-06-01T06:02:42.413Z,54.70
2019-06-01T06:05:13.134Z,55.00
2019-06-01T06:07:42.395Z,55.50
2019-06-01T06:10:12.003Z,54.80
2019-06-01T06:12:41.014Z,54.00
2019-06-01T06:15:11.460Z,54.80
2019-06-01T06:17:40.617Z,54.50
2019-06-01T06:20:09.821Z,54.90
2019-06-01T06:22:41.204Z,54.20
2019-06-01T06:25:09.660Z,53.50
2019-06-01T06:27:38.946Z,53.60
2019-06-01T06:30:09.024Z,54.40
2019-06-01T06:32:38.264Z,54.00
2019-06-01T06:35:07.586Z,54.10
2019-06-01T06:37:36.664Z,54.20
2019-06-01T06:40:07.510Z,53.60
2019-06-01T06:42:36.604Z,54.10
2019-06-01T06:45:07.034Z,53.60
2019-06-01T06:47:36.427Z,54.00
2019-06-01T06:50:06.844Z,54.30
2019-06-01T06:52:36.063Z,54.90
2019-06-01T06:55:06.472Z,53.70
2019-06-01T06:57:35.708Z,53.40
2019-06-01T07:00:07.553Z,53.60
2019-06-01T07:02:36.745Z,53.40
2019-06-01T07:05:07.374Z,53.30
2019-06-01T07:07:36.572Z,52.30
2019-06-01T07:10:06.594Z,52.10
2019-06-01T07:12:35.786Z,52.50
2019-06-01T07:15:06.482Z,53.10
2019-06-01T07:17:35.914Z,53.30
2019-06-01T07:20:06.114Z,53.00
2019-06-01T07:22:35.231Z,52.50
2019-06-01T07:25:06.272Z,51.90
2019-06-01T07:27:35.768Z,51.90
2019-06-01T07:30:06.223Z,50.40
2019-06-01T07:32:35.495Z,51.20
2019-06-01T07:35:08.449Z,50.90
2019-06-01T07:37:37.680Z,50.00
2019-06-01T07:40:12.023Z,50.20
2019-06-01T07:42:38.242Z,50.60
2019-06-01T07:45:08.064Z,49.60
2019-06-01T07:47:37.239Z,49.20
2019-06-01T07:50:07.347Z,48.70
2019-06-01T07:52:36.368Z,47.20
2019-06-01T07:55:06.635Z,47.70
2019-06-01T07:57:35.872Z,47.30
2019-06-01T08:00:08.968Z,47.20
2019-06-01T08:02:38.056Z,46.90
2019-06-01T08:05:08.619Z,47.70
2019-06-01T08:07:37.816Z,47.10
2019-06-01T08:10:08.771Z,48.00
2019-06-01T08:12:37.919Z,47.70
2019-06-01T08:15:10.328Z,46.80
2019-06-01T08:17:39.530Z,46.20
2019-06-01T08:20:09.106Z,47.30
2019-06-01T08:22:38.187Z,47.80
2019-06-01T08:25:07.753Z,47.50
2019-06-01T08:27:36.782Z,47.30
2019-06-01T08:30:09.580Z,47.50
2019-06-01T08:32:38.670Z,47.40
2019-06-01T08:35:09.635Z,46.00
2019-06-01T08:37:39.014Z,47.30
2019-06-01T08:40:09.052Z,46.80
2019-06-01T08:42:38.270Z,42.70
2019-06-01T08:45:08.279Z,44.40
2019-06-01T08:47:37.439Z,47.00
2019-06-01T08:50:07.556Z,43.90
2019-06-01T08:52:36.797Z,45.50
2019-06-01T08:55:07.372Z,45.60
2019-06-01T08:57:36.588Z,43.70
2019-06-01T09:00:08.198Z,44.10
2019-06-01T09:02:37.341Z,43.20
2019-06-01T09:05:21.301Z,45.10
2019-06-01T09:07:39.174Z,40.90
2019-06-01T09:10:10.708Z,44.80
2019-06-01T09:12:39.865Z,45.40
2019-06-01T09:15:11.343Z,43.00
2019-06-01T09:17:40.517Z,42.40
2019-06-01T09:20:09.927Z,40.90
2019-06-01T09:22:39.623Z,41.90
2019-06-01T09:25:08.824Z,42.70
2019-06-01T09:27:38.018Z,44.60
2019-06-01T09:30:10.651Z,45.00
2019-06-01T09:32:39.901Z,42.40
2019-06-01T09:35:09.343Z,41.10
2019-06-01T09:37:38.609Z,42.80
2019-06-01T09:40:08.349Z,42.30
2019-06-01T09:42:37.635Z,40.00
2019-06-01T09:45:07.452Z,39.80
2019-06-01T09:47:37.686Z,42.20
2019-06-01T09:50:07.773Z,38.40
2019-06-01T09:52:37.727Z,42.60
2019-06-01T09:55:08.318Z,40.60
2019-06-01T09:57:38.375Z,40.60
2019-06-01T10:00:11.714Z,42.40
2019-06-01T10:02:41.027Z,39.10
2019-06-01T10:05:10.422Z,37.20
2019-06-01T10:07:39.592Z,36.20
2019-06-01T10:10:09.378Z,38.40
2019-06-01T10:12:38.535Z,38.40
2019-06-01T10:15:09.677Z,36.80
2019-06-01T10:17:39.116Z,38.70
2019-06-01T10:20:09.708Z,37.70
2019-06-01T10:22:39.563Z,38.20
2019-06-01T10:25:09.572Z,36.00
2019-06-01T10:27:38.857Z,37.50
2019-06-01T10:30:08.641Z,37.90
2019-06-01T10:32:38.029Z,35.50
2019-06-01T10:35:08.261Z,37.70
2019-06-01T10:37:37.673Z,35.70
2019-06-01T10:42:36.175Z,36.00
2019-06-01T10:45:06.851Z,37.10
2019-06-01T10:47:36.471Z,36.70
2019-06-01T10:50:07.100Z,36.40
2019-06-01T10:52:36.396Z,37.70
2019-06-01T10:55:07.707Z,35.40
2019-06-01T10:57:36.769Z,34.10
2019-06-01T11:00:10.854Z,36.50
2019-06-01T11:02:40.872Z,34.60
2019-06-01T11:05:10.532Z,35.10
2019-06-01T11:07:40.923Z,33.20
2019-06-01T11:10:11.120Z,34.60
2019-06-01T11:12:41.075Z,36.30
2019-06-01T11:15:11.889Z,32.70
2019-06-01T11:17:41.214Z,33.10
2019-06-01T11:20:11.361Z,34.90
2019-06-01T11:22:41.487Z,31.70
2019-06-01T11:25:11.208Z,35.90
2019-06-01T11:27:41.784Z,30.40
2019-06-01T11:30:11.556Z,33.50
2019-06-01T11:32:41.871Z,33.50
2019-06-01T11:35:11.968Z,31.60
2019-06-01T11:37:42.286Z,30.00
2019-06-01T11:40:11.727Z,29.90
2019-06-01T11:42:41.113Z,29.80
2019-06-01T11:45:10.711Z,30.70
2019-06-01T11:47:40.987Z,31.80
2019-06-01T11:50:10.663Z,28.80
2019-06-01T11:52:41.052Z,28.30
2019-06-01T11:55:10.775Z,26.20
2019-06-01T11:57:41.467Z,28.10
2019-06-01T12:00:12.371Z,28.10
2019-06-01T12:02:41.885Z,26.50
2019-06-01T12:05:11.486Z,27.20
2019-06-01T12:07:41.830Z,27.90
2019-06-01T12:10:11.609Z,28.70
2019-06-01T12:12:42.223Z,27.90
2019-06-01T12:15:12.316Z,30.20
2019-06-01T12:17:42.744Z,29.20
2019-06-01T12:20:12.418Z,27.60
2019-06-01T12:22:42.849Z,27.00
2019-06-01T12:25:12.820Z,26.20
2019-06-01T12:27:41.931Z,29.70
2019-06-01T12:30:11.424Z,27.90
2019-06-01T12:32:41.814Z,29.60
2019-06-01T12:35:11.665Z,29.40
2019-06-01T12:38:00.867Z,29.30
2019-06-01T12:40:11.909Z,28.10
2019-06-01T12:42:41.483Z,27.10
2019-06-01T12:45:13.663Z,27.50
2019-06-01T12:47:43.702Z,28.10
2019-06-01T12:50:13.657Z,28.70
2019-06-01T12:52:42.831Z,26.30
2019-06-01T12:55:12.158Z,26.00
2019-06-01T12:57:41.234Z,27.20
2019-06-01T13:00:11.933Z,27.10
2019-06-01T13:02:44.803Z,26.40
2019-06-01T13:05:12.382Z,25.80
2019-06-01T13:07:53.028Z,26.60
2019-06-01T13:10:13.707Z,26.30
2019-06-01T13:12:43.086Z,28.40
2019-06-01T13:15:13.171Z,26.50
2019-06-01T13:17:43.114Z,26.30
2019-06-01T13:20:12.905Z,27.10
2019-06-01T13:22:43.437Z,27.00
2019-06-01T13:25:12.919Z,25.70
2019-06-01T13:27:42.572Z,28.10
2019-06-01T13:30:12.754Z,28.90
2019-06-01T13:32:42.384Z,27.70
2019-06-01T13:35:11.864Z,24.70
2019-06-01T13:37:40.870Z,24.80
2019-06-01T13:40:10.174Z,23.70
2019-06-01T13:42:39.154Z,24.40
2019-06-01T13:45:09.293Z,25.50
2019-06-01T13:47:38.373Z,24.40
2019-06-01T13:50:07.755Z,23.80
2019-06-01T13:52:36.860Z,24.90
2019-06-01T13:55:08.562Z,25.20
2019-06-01T13:57:39.532Z,25.20
2019-06-01T14:00:09.298Z,24.70
2019-06-01T14:02:38.642Z,24.90
2019-06-01T14:05:09.024Z,24.20
2019-06-01T14:07:38.403Z,24.40
2019-06-01T14:10:08.237Z,24.80
2019-06-01T14:12:37.427Z,25.20
2019-06-01T14:15:08.180Z,24.40
2019-06-01T14:17:37.208Z,23.80
2019-06-01T14:20:07.137Z,24.10
2019-06-01T14:22:38.936Z,24.30
2019-06-01T14:25:14.250Z,23.80
2019-06-01T14:27:39.148Z,25.10
2019-06-01T14:30:09.382Z,24.10
2019-06-01T14:32:38.428Z,24.80
2019-06-01T14:35:08.738Z,24.20
2019-06-01T14:37:37.766Z,24.60
2019-06-01T14:40:07.446Z,24.60
2019-06-01T14:42:39.664Z,24.80
2019-06-01T14:45:09.936Z,24.00
2019-06-01T14:47:39.221Z,23.90
2019-06-01T14:50:09.119Z,24.60
2019-06-01T14:52:38.228Z,24.10
2019-06-01T14:55:08.114Z,24.70
2019-06-01T14:57:37.141Z,25.20
2019-06-01T15:00:11.009Z,25.00
2019-06-01T15:02:39.973Z,25.70
2019-06-01T15:05:09.344Z,24.60
2019-06-01T15:07:38.401Z,24.50
2019-06-01T15:10:11.338Z,25.10
2019-06-01T15:12:40.344Z,24.50
2019-06-01T15:15:10.107Z,24.70
2019-06-01T15:17:39.127Z,24.90
2019-06-01T15:20:10.767Z,23.90
2019-06-01T15:22:39.737Z,23.90
2019-06-01T15:25:09.639Z,24.00
2019-06-01T15:27:38.739Z,24.40
2019-06-01T15:30:09.215Z,23.80
2019-06-01T15:32:38.443Z,24.60
2019-06-01T15:35:08.925Z,25.00
2019-06-01T15:37:38.028Z,25.30
2019-06-01T15:40:11.093Z,25.30
2019-06-01T15:42:40.380Z,25.20
2019-06-01T15:45:09.814Z,25.60
2019-06-01T15:47:38.772Z,24.30
2019-06-01T15:50:09.290Z,24.70
2019-06-01T15:52:38.367Z,24.50
2019-06-01T15:55:08.386Z,24.80
2019-06-01T15:57:37.454Z,24.40
2019-06-01T16:00:08.488Z,24.50
2019-06-01T16:02:38.942Z,25.60
2019-06-01T16:05:08.857Z,24.60
2019-06-01T16:07:38.002Z,24.30
2019-06-01T16:10:08.995Z,24.20
2019-06-01T16:12:38.251Z,24.40
2019-06-01T16:15:08.607Z,25.10
2019-06-01T16:17:37.547Z,24.70
2019-06-01T16:20:10.166Z,25.20
2019-06-01T16:22:42.289Z,25.40
2019-06-01T16:25:12.380Z,25.20
2019-06-01T16:27:41.345Z,25.00
2019-06-01T16:30:11.059Z,25.20
2019-06-01T16:32:40.099Z,26.60
2019-06-01T16:35:10.263Z,26.50
2019-06-01T16:37:40.175Z,26.70
2019-06-01T16:40:10.719Z,26.90
2019-06-01T16:42:43.169Z,25.90
2019-06-01T16:45:13.266Z,26.70
2019-06-01T16:47:42.334Z,27.30
2019-06-01T16:50:11.934Z,27.60
2019-06-01T16:52:40.877Z,26.20
2019-06-01T16:55:11.297Z,27.00
2019-06-01T16:57:40.263Z,27.80
2019-06-01T17:00:11.524Z,27.90
2019-06-01T17:02:43.672Z,28.40
2019-06-01T17:05:13.157Z,27.30
2019-06-01T17:07:42.171Z,27.70
2019-06-01T17:10:25.662Z,28.60
2019-06-01T17:12:43.856Z,28.30
2019-06-01T17:15:13.505Z,29.30
2019-06-01T17:17:42.786Z,30.20
2019-06-01T17:20:33.977Z,30.40
2019-06-01T17:23:21.934Z,31.20
2019-06-01T17:25:33.656Z,31.60
2019-06-01T17:28:03.165Z,32.20
2019-06-01T17:30:32.169Z,31.90
2019-06-01T17:33:02.227Z,32.60
2019-06-01T17:35:31.439Z,33.20
2019-06-01T17:38:00.775Z,33.60
2019-06-01T17:40:37.102Z,34.10
2019-06-01T17:43:01.329Z,34.10
2019-06-01T17:45:30.861Z,33.90
2019-06-01T17:48:15.802Z,34.90
2019-06-01T17:50:30.657Z,34.90
2019-06-01T17:53:00.546Z,35.40
2019-06-01T17:55:40.366Z,35.80
2019-06-01T17:58:10.243Z,36.00
2019-06-01T18:00:40.468Z,37.00
2019-06-01T18:03:10.091Z,36.70
2019-06-01T18:05:39.755Z,37.60
2019-06-01T18:08:10.313Z,36.60
2019-06-01T18:11:00.422Z,37.10
2019-06-01T18:13:29.636Z,37.30
2019-06-01T18:15:58.736Z,38.40
2019-06-01T18:18:28.135Z,38.20
2019-06-01T18:20:57.335Z,38.30
2019-06-01T18:23:26.545Z,39.30
2019-06-01T18:25:55.589Z,39.10
2019-06-01T18:28:24.951Z,39.20
2019-06-01T18:31:02.833Z,39.20
2019-06-01T18:33:53.295Z,39.10
2019-06-01T18:36:42.299Z,39.10
2019-06-01T18:39:22.070Z,39.00
2019-06-01T18:41:59.616Z,39.30
2019-06-01T18:44:39.684Z,40.00
2019-06-01T18:47:31.951Z,39.30
2019-06-01T18:50:05.796Z,39.90
2019-06-01T18:52:45.212Z,40.40
2019-06-01T18:55:27.727Z,40.30
2019-06-01T18:58:12.435Z,40.40
2019-06-01T19:00:52.971Z,40.60
2019-06-01T19:03:54.663Z,41.30
2019-06-01T19:06:35.328Z,41.60
2019-06-01T19:09:25.772Z,42.10
2019-06-01T19:12:08.926Z,42.50
2019-06-01T19:14:55.278Z,42.40
2019-06-01T19:17:32.943Z,42.90
2019-06-01T19:20:15.178Z,43.30
2019-06-01T19:23:03.726Z,43.60
2019-06-01T19:25:43.411Z,43.60
2019-06-01T19:28:24.066Z,44.10
2019-06-01T19:31:04.975Z,44.20
2019-06-01T19:33:33.947Z,44.10
2019-06-01T19:36:04.575Z,44.20
2019-06-01T19:38:34.178Z,43.80
2019-06-01T19:41:03.103Z,44.00
2019-06-01T19:43:32.067Z,44.30
2019-06-01T19:46:01.067Z,44.30
2019-06-01T19:48:30.090Z,44.70
2019-06-01T19:50:59.090Z,45.20
2019-06-01T19:53:28.105Z,45.70
2019-06-01T19:55:57.139Z,46.50
2019-06-01T19:58:26.147Z,45.40
2019-06-01T20:00:55.250Z,45.20
2019-06-01T20:03:24.221Z,45.50
2019-06-01T20:05:53.244Z,46.00
2019-06-01T20:08:22.606Z,46.20
2019-06-01T20:10:51.826Z,46.70
2019-06-01T20:13:21.391Z,46.70
2019-06-01T20:15:50.589Z,46.40
2019-06-01T20:18:19.631Z,46.90
2019-06-01T20:20:48.626Z,46.80
2019-06-01T20:23:17.778Z,47.10
2019-06-01T20:25:46.773Z,47.70
2019-06-01T20:28:15.857Z,47.70
2019-06-01T20:30:46.420Z,48.20
2019-06-01T20:33:15.955Z,48.30
2019-06-01T20:35:45.211Z,48.30
2019-06-01T20:38:14.428Z,48.20
2019-06-01T20:40:43.860Z,47.90
2019-06-01T20:43:14.535Z,48.40
2019-06-01T20:45:43.983Z,48.30
2019-06-01T20:48:13.395Z,48.20
2019-06-01T20:50:46.803Z,47.70
2019-06-01T20:53:16.878Z,48.30
2019-06-01T20:55:47.342Z,48.80
2019-06-01T20:58:18.266Z,49.10
2019-06-01T21:00:47.093Z,49.50
2019-06-01T21:03:16.174Z,49.40
2019-06-01T21:05:45.258Z,49.50
2019-06-01T21:08:14.351Z,49.50
2019-06-01T21:10:46.108Z,49.50
2019-06-01T21:13:16.025Z,49.60
2019-06-01T21:15:45.322Z,49.40
2019-06-01T21:18:14.495Z,49.30
2019-06-01T21:20:43.660Z,49.30
2019-06-01T21:23:12.836Z,49.30
2019-06-01T21:25:41.910Z,49.30
2019-06-01T21:28:14.307Z,50.50
2019-06-01T21:30:41.807Z,50.00
2019-06-01T21:33:11.149Z,49.40
2019-06-01T21:35:40.348Z,49.90
2019-06-01T21:38:09.327Z,50.00
2019-06-01T21:40:38.734Z,49.90
2019-06-01T21:43:23.673Z,50.10
2019-06-01T21:45:38.382Z,49.70
2019-06-01T21:48:07.558Z,49.20
2019-06-01T21:50:36.754Z,49.50
2019-06-01T21:53:05.950Z,49.70
2019-06-01T21:55:35.057Z,49.90
2019-06-01T21:58:04.287Z,50.60
2019-06-01T22:00:40.712Z,50.80
2019-06-01T22:03:10.136Z,51.10
2019-06-01T22:05:39.476Z,50.80
2019-06-01T22:08:08.856Z,50.80
2019-06-01T22:10:38.027Z,50.90
2019-06-01T22:13:18.265Z,50.60
2019-06-01T22:15:38.051Z,50.30
2019-06-01T22:18:07.413Z,50.60
2019-06-01T22:20:36.515Z,51.00
2019-06-01T22:23:05.815Z,51.50
2019-06-01T22:25:34.940Z,51.50
2019-06-01T22:28:04.180Z,50.60
2019-06-01T22:30:33.266Z,50.40
2019-06-01T22:33:02.536Z,50.00
2019-06-01T22:35:31.636Z,50.30
2019-06-01T22:38:00.838Z,50.50
2019-06-01T22:40:31.120Z,50.90
2019-06-01T22:43:00.865Z,51.10
2019-06-01T22:45:29.982Z,50.90
2019-06-01T22:47:59.167Z,51.00
2019-06-01T22:50:29.054Z,51.20
2019-06-01T22:52:58.272Z,51.00
2019-06-01T22:55:28.418Z,51.00
2019-06-01T22:57:57.898Z,50.90
2019-06-01T23:00:27.858Z,51.00
2019-06-01T23:02:57.213Z,50.60
2019-06-01T23:05:27.049Z,50.90
2019-06-01T23:07:56.327Z,50.70
2019-06-01T23:10:30.067Z,51.10
2019-06-01T23:12:56.169Z,51.80
2019-06-01T23:15:25.670Z,51.40
2019-06-01T23:17:55.068Z,51.50
2019-06-01T23:20:24.257Z,51.00
2019-06-01T23:22:53.461Z,50.90
2019-06-01T23:25:22.596Z,50.90
2019-06-01T23:27:51.747Z,51.40
2019-06-01T23:30:21.973Z,51.30
2019-06-01T23:32:51.380Z,51.20
2019-06-01T23:35:20.533Z,51.50
2019-06-01T23:37:49.575Z,51.80
2019-06-01T23:40:18.808Z,51.70
2019-06-01T23:42:49.707Z,52.20
2019-06-01T23:45:18.906Z,52.10
2019-06-01T23:47:47.997Z,52.40
2019-06-01T23:50:17.202Z,51.90
2019-06-01T23:52:46.292Z,52.10
2019-06-01T23:55:15.492Z,52.00
2019-06-01T23:57:44.590Z,52.40
